Turner, Idaho
Current Conditions -  °F | °C
As of 6:35 PM on Monday 22 Dec 2014 (Local Time) from KAFO Reporting Station
Overcast Overcast  
Wind Chill: 19°   Ceiling: 4800
Heat Index: 25°   Visibility: 10mi
Dew Point: 18°   Wind: 5mph
Humidity: 74%   Direction: 350°N
Pressure: 30.01"   Gusts: NA
Location:  42.5232°N, 111.761°W
Report Text: KAFO 230135Z AUTO 35004KT 10SM BKN048 BKN050 OVC080 M04/M08 A3001 RMK AO2
Loading
Personal Weather Stations






























Interactive Weather Map New forecast layout! Learn more

10-Day Weather Forecast

Advertisements
Track Severe Weather on mobile